Senno, Belarus

3:07 PM MSK on August 26, 2016 (GMT +0300)
Vitebsk | | Change Station

Elev 577 ft 55.17 °N, 30.22 °E | Updated 7 minutes ago

Clear
Clear
75 °F
Feels Like 75 °F
N
13
Wind Variable Wind from WSW
Gusts 20 mph

Today
High -- | Low -- °F
--% Chance of Precip.
Yesterday
High -- | Low -- °F
Precip. -- in
Pressure 30.21 in
Visibility -9999.0 miles
Clouds
Dew Point 55 °F
Humidity 50%
Rainfall 0.00 in
Snow Depth Not available.
5:57 AM 8:07 PM
Waning Crescent, 35% visible
METAR UMII 261200Z 24006G09MPS CAVOK 24/13 Q1023 NOSIG
Pressure 30.21 in
Visibility -9999.0 miles
Clouds
Dew Point 55 °F
Humidity 50%
Rainfall 0.00 in
Snow Depth Not available.
5:57 AM 8:07 PM
Waning Crescent, 35% visible
METAR UMII 261200Z 24006G09MPS CAVOK 24/13 Q1023 NOSIG

10-Day Weather Forecast

×

Almanac

Astronomy

Aug. 26, 2016 Rise Set
Actual Time
Civil Twilight
Nautical Twilight
Astronomical Twilight
Moon
Length of Visible Light
Length of Day
Tomorrow will be .
, % of the Moon is Illuminated

Today's Extremes

Country Highs Country Lows

Community

WunderPhotos

Upload Photos

1,935,077 photos uploaded!

WunderBlog® & News

Nearby

Air Quality

  Air Quality AQ Index Pollutant
Not available.

Snow Depth

Station Depth Elevation

Earthquake Activity

City Distance Mag. Time & Date
Minimum magnitude displayed is 2.5.

Coastal Water Temperatures

Place Temperature

Stations

Nearby Weather Stations

Station Location Temp. Windchill Dew Point Humidity Wind Precip. Elev Updated Type